Kangerlussuaq

KL  EN  DA
ASIAQ
Weather Now GREENLAND SURVEY
Updated [WGT/WGST] Temperature [°C] Wind [m/s] Air pressure [hPa] Relative humidity [%] Precipitation [mm]
Present Wind chill Speed Max
02.05 21:00-1,0-4,52,8 ⇗3,3101892n/a
02.05 20:00-1,0-5,03,3 ⇗3,6101892n/a
02.05 19:00-0,7-4,43,1 ⇗3,8101790n/a
02.05 18:000,2-3,53,3 ⇗3,7101791n/a
02.05 17:000,1-3,93,6 ⇗4,1101790n/a
02.05 16:00-0,7-4,73,4 ⇗3,6101795n/a
02.05 15:00-0,8-4,53,0 ⇗3,4101794n/a
02.05 14:00-0,7-4,02,6 ⇗2,9101694n/a
02.05 13:00-1,0-3,41,8 ⇗2,1101794n/a
02.05 12:00-1,3-3,71,8 ⇗2,2101796n/a
02.05 11:00-1,6-4,01,8 ⇗1,9101796n/a
02.05 10:00-1,90,01,2 ⇗1,5101797n/a
02.05 09:00-2,10,01,3 ⇗1,5101798n/a
02.05 08:00-2,40,01,1 ⇗1,3101798n/a
02.05 07:00-2,50,01,2 ⇗1,4101798n/a
02.05 06:00-2,5-4,91,7 ⇗2,0101798n/a
02.05 05:00-2,5-4,81,6 ⇗2,0101798n/a
02.05 04:00-2,5-6,02,5 ⇗2,8101797n/a
02.05 03:00-2,5-5,82,3 ⇗2,9101795n/a
02.05 02:00-1,8-6,13,5 ⇒5,3101782n/a
02.05 01:00-1,5-6,34,3 ⇒6,5101776n/a
02.05 00:00-1,1-7,26,8 ⇒9,2101770n/a
01.05 23:00-0,7-6,86,9 ⇒10,1101668n/a
01.05 22:000,1-5,76,9 ⇘8,9101664n/a
01.05 21:000,7-5,17,3 ⇘9,4101559n/a
Position: (67.013333,-50.727122)

[Back]